sensor_id;sensor_type;location;lat;lon;timestamp;P1;durP1;ratioP1;P2;durP2;ratioP2
39492;SDS011;25176;51.060;3.720;2023-04-01T00:00:22;9.30;;;4.20;;
39492;SDS011;25176;51.060;3.720;2023-04-01T00:02:48;10.45;;;4.90;;
39492;SDS011;25176;51.060;3.720;2023-04-01T00:05:13;9.55;;;3.88;;
39492;SDS011;25176;51.060;3.720;2023-04-01T00:07:41;11.57;;;5.13;;
39492;SDS011;25176;51.060;3.720;2023-04-01T00:10:07;12.77;;;4.30;;
39492;SDS011;25176;51.060;3.720;2023-04-01T00:12:35;12.25;;;5.13;;
39492;SDS011;25176;51.060;3.720;2023-04-01T00:15:01;13.07;;;5.47;;
39492;SDS011;25176;51.060;3.720;2023-04-01T00:17:27;8.25;;;4.53;;
39492;SDS011;25176;51.060;3.720;2023-04-01T00:19:54;12.85;;;4.32;;
39492;SDS011;25176;51.060;3.720;2023-04-01T00:22:20;11.50;;;4.18;;
39492;SDS011;25176;51.060;3.720;2023-04-01T00:24:46;10.77;;;4.55;;
39492;SDS011;25176;51.060;3.720;2023-04-01T00:27:12;12.43;;;4.45;;
39492;SDS011;25176;51.060;3.720;2023-04-01T00:29:41;8.57;;;3.83;;
39492;SDS011;25176;51.060;3.720;2023-04-01T00:32:11;8.30;;;2.80;;
39492;SDS011;25176;51.060;3.720;2023-04-01T00:34:37;7.75;;;3.38;;
39492;SDS011;25176;51.060;3.720;2023-04-01T00:37:04;10.02;;;3.40;;
39492;SDS011;25176;51.060;3.720;2023-04-01T00:39:31;9.00;;;3.20;;
39492;SDS011;25176;51.060;3.720;2023-04-01T00:41:57;7.68;;;2.80;;
39492;SDS011;25176;51.060;3.720;2023-04-01T00:44:25;9.57;;;3.42;;
39492;SDS011;25176;51.060;3.720;2023-04-01T00:46:53;6.88;;;3.17;;
39492;SDS011;25176;51.060;3.720;2023-04-01T00:49:20;11.13;;;2.92;;
39492;SDS011;25176;51.060;3.720;2023-04-01T00:51:49;5.15;;;2.83;;
39492;SDS011;25176;51.060;3.720;2023-04-01T00:54:19;8.20;;;2.30;;
39492;SDS011;25176;51.060;3.720;2023-04-01T00:56:47;7.30;;;2.35;;
39492;SDS011;25176;51.060;3.720;2023-04-01T00:59:18;10.95;;;2.75;;
39492;SDS011;25176;51.060;3.720;2023-04-01T01:01:48;4.43;;;2.15;;
39492;SDS011;25176;51.060;3.720;2023-04-01T01:04:28;9.82;;;3.05;;
39492;SDS011;25176;51.060;3.720;2023-04-01T01:12:54;4.43;;;2.40;;
39492;SDS011;25176;51.060;3.720;2023-04-01T01:15:44;9.02;;;3.10;;
39492;SDS011;25176;51.060;3.720;2023-04-01T01:18:46;8.82;;;3.35;;
39492;SDS011;25176;51.060;3.720;2023-04-01T01:27:11;11.80;;;3.65;;
39492;SDS011;25176;51.060;3.720;2023-04-01T01:37:53;11.23;;;3.70;;
39492;SDS011;25176;51.060;3.720;2023-04-01T01:42:50;13.43;;;4.50;;
39492;SDS011;25176;51.060;3.720;2023-04-01T01:45:20;10.52;;;3.42;;
39492;SDS011;25176;51.060;3.720;2023-04-01T01:47:48;11.07;;;3.15;;
39492;SDS011;25176;51.060;3.720;2023-04-01T01:50:14;10.07;;;3.47;;
39492;SDS011;25176;51.060;3.720;2023-04-01T01:52:41;11.48;;;3.92;;
39492;SDS011;25176;51.060;3.720;2023-04-01T01:55:23;9.30;;;3.33;;
39492;SDS011;25176;51.060;3.720;2023-04-01T01:57:55;11.02;;;3.78;;
39492;SDS011;25176;51.060;3.720;2023-04-01T02:00:25;8.85;;;3.08;;
39492;SDS011;25176;51.060;3.720;2023-04-01T02:02:52;9.52;;;2.88;;
39492;SDS011;25176;51.060;3.720;2023-04-01T02:05:19;10.15;;;2.72;;
39492;SDS011;25176;51.060;3.720;2023-04-01T02:07:49;6.80;;;2.65;;
39492;SDS011;25176;51.060;3.720;2023-04-01T02:10:22;7.85;;;2.80;;
39492;SDS011;25176;51.060;3.720;2023-04-01T02:12:50;8.00;;;3.45;;
39492;SDS011;25176;51.060;3.720;2023-04-01T02:15:17;6.35;;;2.38;;
39492;SDS011;25176;51.060;3.720;2023-04-01T02:17:45;6.57;;;2.90;;
39492;SDS011;25176;51.060;3.720;2023-04-01T02:20:14;6.75;;;2.60;;
39492;SDS011;25176;51.060;3.720;2023-04-01T02:22:46;6.10;;;2.28;;
39492;SDS011;25176;51.060;3.720;2023-04-01T02:25:16;9.93;;;2.30;;
39492;SDS011;25176;51.060;3.720;2023-04-01T02:27:47;7.45;;;2.75;;
39492;SDS011;25176;51.060;3.720;2023-04-01T02:30:16;6.40;;;2.75;;
39492;SDS011;25176;51.060;3.720;2023-04-01T02:32:42;8.57;;;3.08;;
39492;SDS011;25176;51.060;3.720;2023-04-01T02:35:09;5.38;;;2.35;;
39492;SDS011;25176;51.060;3.720;2023-04-01T02:37:37;10.40;;;3.22;;
39492;SDS011;25176;51.060;3.720;2023-04-01T02:40:07;7.45;;;2.97;;
39492;SDS011;25176;51.060;3.720;2023-04-01T02:42:35;14.45;;;4.07;;
39492;SDS011;25176;51.060;3.720;2023-04-01T02:45:01;11.20;;;2.92;;
39492;SDS011;25176;51.060;3.720;2023-04-01T02:47:27;9.48;;;3.58;;
39492;SDS011;25176;51.060;3.720;2023-04-01T02:49:52;9.07;;;3.45;;
39492;SDS011;25176;51.060;3.720;2023-04-01T02:52:23;9.85;;;3.58;;
39492;SDS011;25176;51.060;3.720;2023-04-01T02:54:55;8.45;;;3.70;;
39492;SDS011;25176;51.060;3.720;2023-04-01T02:57:21;9.45;;;4.28;;
39492;SDS011;25176;51.060;3.720;2023-04-01T02:59:47;9.02;;;3.40;;
39492;SDS011;25176;51.060;3.720;2023-04-01T03:02:13;9.40;;;3.28;;
39492;SDS011;25176;51.060;3.720;2023-04-01T03:04:39;10.18;;;3.42;;
39492;SDS011;25176;51.060;3.720;2023-04-01T03:07:05;9.05;;;3.78;;
39492;SDS011;25176;51.060;3.720;2023-04-01T03:09:30;9.27;;;3.67;;
39492;SDS011;25176;51.060;3.720;2023-04-01T03:11:56;10.13;;;3.67;;
39492;SDS011;25176;51.060;3.720;2023-04-01T03:14:22;7.63;;;3.15;;
39492;SDS011;25176;51.060;3.720;2023-04-01T03:16:47;13.73;;;3.72;;
39492;SDS011;25176;51.060;3.720;2023-04-01T03:19:13;8.73;;;3.47;;
39492;SDS011;25176;51.060;3.720;2023-04-01T03:21:39;15.60;;;5.13;;
39492;SDS011;25176;51.060;3.720;2023-04-01T03:24:05;7.47;;;3.53;;
39492;SDS011;25176;51.060;3.720;2023-04-01T03:26:31;6.63;;;3.22;;
39492;SDS011;25176;51.060;3.720;2023-04-01T03:28:57;7.18;;;3.33;;
39492;SDS011;25176;51.060;3.720;2023-04-01T03:31:22;6.82;;;2.80;;
39492;SDS011;25176;51.060;3.720;2023-04-01T03:33:48;4.13;;;2.58;;
39492;SDS011;25176;51.060;3.720;2023-04-01T03:36:14;5.35;;;2.78;;
39492;SDS011;25176;51.060;3.720;2023-04-01T03:38:40;5.85;;;2.88;;
39492;SDS011;25176;51.060;3.720;2023-04-01T03:41:06;3.17;;;2.78;;
39492;SDS011;25176;51.060;3.720;2023-04-01T03:43:31;4.07;;;2.47;;
39492;SDS011;25176;51.060;3.720;2023-04-01T03:45:57;3.28;;;2.50;;
39492;SDS011;25176;51.060;3.720;2023-04-01T03:48:24;2.63;;;2.08;;
39492;SDS011;25176;51.060;3.720;2023-04-01T03:50:50;2.85;;;2.10;;
39492;SDS011;25176;51.060;3.720;2023-04-01T03:53:17;4.57;;;2.00;;
39492;SDS011;25176;51.060;3.720;2023-04-01T03:55:42;2.33;;;1.80;;
39492;SDS011;25176;51.060;3.720;2023-04-01T03:58:08;4.15;;;2.25;;
39492;SDS011;25176;51.060;3.720;2023-04-01T04:00:34;3.38;;;2.17;;
39492;SDS011;25176;51.060;3.720;2023-04-01T04:02:59;4.32;;;2.40;;
39492;SDS011;25176;51.060;3.720;2023-04-01T04:05:26;3.92;;;2.10;;
39492;SDS011;25176;51.060;3.720;2023-04-01T04:07:53;3.28;;;1.95;;
39492;SDS011;25176;51.060;3.720;2023-04-01T04:10:19;3.67;;;2.17;;
39492;SDS011;25176;51.060;3.720;2023-04-01T04:12:45;3.95;;;2.42;;
39492;SDS011;25176;51.060;3.720;2023-04-01T04:15:11;2.72;;;2.03;;
39492;SDS011;25176;51.060;3.720;2023-04-01T04:17:37;4.07;;;2.10;;
39492;SDS011;25176;51.060;3.720;2023-04-01T04:20:02;2.35;;;2.15;;
39492;SDS011;25176;51.060;3.720;2023-04-01T04:22:28;3.15;;;2.10;;
39492;SDS011;25176;51.060;3.720;2023-04-01T04:24:54;5.10;;;2.17;;
39492;SDS011;25176;51.060;3.720;2023-04-01T04:27:19;2.70;;;2.05;;
39492;SDS011;25176;51.060;3.720;2023-04-01T04:29:45;3.80;;;2.15;;
39492;SDS011;25176;51.060;3.720;2023-04-01T04:32:10;2.22;;;1.70;;
39492;SDS011;25176;51.060;3.720;2023-04-01T04:34:36;3.35;;;1.88;;
39492;SDS011;25176;51.060;3.720;2023-04-01T04:37:02;3.00;;;1.60;;
39492;SDS011;25176;51.060;3.720;2023-04-01T04:39:28;3.95;;;1.90;;
39492;SDS011;25176;51.060;3.720;2023-04-01T04:41:54;4.20;;;2.42;;
39492;SDS011;25176;51.060;3.720;2023-04-01T04:44:19;4.82;;;2.75;;
39492;SDS011;25176;51.060;3.720;2023-04-01T04:46:45;4.55;;;3.65;;
39492;SDS011;25176;51.060;3.720;2023-04-01T04:49:11;4.20;;;3.63;;
39492;SDS011;25176;51.060;3.720;2023-04-01T04:51:36;6.25;;;3.92;;
39492;SDS011;25176;51.060;3.720;2023-04-01T04:54:03;4.88;;;4.00;;
39492;SDS011;25176;51.060;3.720;2023-04-01T04:56:29;7.68;;;3.92;;
39492;SDS011;25176;51.060;3.720;2023-04-01T04:58:55;6.40;;;4.20;;
39492;SDS011;25176;51.060;3.720;2023-04-01T05:01:21;9.30;;;5.35;;
39492;SDS011;25176;51.060;3.720;2023-04-01T05:03:47;7.57;;;3.90;;
39492;SDS011;25176;51.060;3.720;2023-04-01T05:06:13;7.38;;;4.43;;
39492;SDS011;25176;51.060;3.720;2023-04-01T05:08:40;5.60;;;3.95;;
39492;SDS011;25176;51.060;3.720;2023-04-01T05:11:09;7.70;;;4.47;;
39492;SDS011;25176;51.060;3.720;2023-04-01T05:13:37;7.85;;;4.28;;
39492;SDS011;25176;51.060;3.720;2023-04-01T05:16:02;6.93;;;4.72;;
39492;SDS011;25176;51.060;3.720;2023-04-01T05:18:28;6.93;;;4.20;;
39492;SDS011;25176;51.060;3.720;2023-04-01T05:20:54;10.35;;;3.72;;
39492;SDS011;25176;51.060;3.720;2023-04-01T05:23:21;6.15;;;3.85;;
39492;SDS011;25176;51.060;3.720;2023-04-01T05:25:50;6.10;;;3.20;;
39492;SDS011;25176;51.060;3.720;2023-04-01T05:28:17;5.75;;;3.40;;
39492;SDS011;25176;51.060;3.720;2023-04-01T05:30:44;7.10;;;3.20;;
39492;SDS011;25176;51.060;3.720;2023-04-01T05:33:10;6.22;;;3.20;;
39492;SDS011;25176;51.060;3.720;2023-04-01T05:35:37;6.22;;;3.58;;
39492;SDS011;25176;51.060;3.720;2023-04-01T05:38:03;5.30;;;2.80;;
39492;SDS011;25176;51.060;3.720;2023-04-01T05:40:29;6.82;;;3.25;;
39492;SDS011;25176;51.060;3.720;2023-04-01T05:42:56;6.40;;;3.72;;
39492;SDS011;25176;51.060;3.720;2023-04-01T05:45:21;6.20;;;2.72;;
39492;SDS011;25176;51.060;3.720;2023-04-01T05:47:47;4.70;;;2.83;;
39492;SDS011;25176;51.060;3.720;2023-04-01T05:50:13;4.57;;;2.55;;
39492;SDS011;25176;51.060;3.720;2023-04-01T05:52:38;5.00;;;2.67;;
39492;SDS011;25176;51.060;3.720;2023-04-01T05:55:04;2.67;;;1.85;;
39492;SDS011;25176;51.060;3.720;2023-04-01T05:57:30;4.05;;;2.22;;
39492;SDS011;25176;51.060;3.720;2023-04-01T05:59:56;2.90;;;1.95;;
39492;SDS011;25176;51.060;3.720;2023-04-01T06:02:21;3.70;;;2.00;;
39492;SDS011;25176;51.060;3.720;2023-04-01T06:04:47;3.60;;;1.83;;
39492;SDS011;25176;51.060;3.720;2023-04-01T06:07:13;2.58;;;1.63;;
39492;SDS011;25176;51.060;3.720;2023-04-01T06:09:41;3.05;;;1.40;;
39492;SDS011;25176;51.060;3.720;2023-04-01T06:15:01;3.22;;;1.15;;
39492;SDS011;25176;51.060;3.720;2023-04-01T06:23:15;6.35;;;3.35;;
39492;SDS011;25176;51.060;3.720;2023-04-01T06:33:52;2.25;;;1.30;;
39492;SDS011;25176;51.060;3.720;2023-04-01T06:36:25;2.30;;;1.23;;
39492;SDS011;25176;51.060;3.720;2023-04-01T06:39:38;1.85;;;1.20;;
39492;SDS011;25176;51.060;3.720;2023-04-01T06:48:09;1.25;;;0.60;;
39492;SDS011;25176;51.060;3.720;2023-04-01T06:56:15;1.23;;;0.80;;
39492;SDS011;25176;51.060;3.720;2023-04-01T06:58:48;2.50;;;0.90;;
39492;SDS011;25176;51.060;3.720;2023-04-01T07:02:04;1.55;;;0.75;;
39492;SDS011;25176;51.060;3.720;2023-04-01T07:06:52;1.17;;;0.60;;
39492;SDS011;25176;51.060;3.720;2023-04-01T07:09:24;0.93;;;0.60;;
39492;SDS011;25176;51.060;3.720;2023-04-01T07:12:01;2.10;;;0.60;;
39492;SDS011;25176;51.060;3.720;2023-04-01T07:14:32;1.50;;;0.70;;
39492;SDS011;25176;51.060;3.720;2023-04-01T07:17:12;0.80;;;0.60;;
39492;SDS011;25176;51.060;3.720;2023-04-01T07:19:42;1.45;;;0.52;;
39492;SDS011;25176;51.060;3.720;2023-04-01T07:22:16;0.70;;;0.50;;
39492;SDS011;25176;51.060;3.720;2023-04-01T07:25:07;0.98;;;0.52;;
39492;SDS011;25176;51.060;3.720;2023-04-01T07:27:45;1.35;;;0.50;;
39492;SDS011;25176;51.060;3.720;2023-04-01T07:30:15;2.38;;;0.57;;
39492;SDS011;25176;51.060;3.720;2023-04-01T07:32:44;1.00;;;0.60;;
39492;SDS011;25176;51.060;3.720;2023-04-01T07:35:23;2.22;;;0.50;;
39492;SDS011;25176;51.060;3.720;2023-04-01T07:38:20;2.17;;;0.60;;
39492;SDS011;25176;51.060;3.720;2023-04-01T07:52:19;1.42;;;0.70;;
39492;SDS011;25176;51.060;3.720;2023-04-01T07:55:20;1.55;;;0.63;;
39492;SDS011;25176;51.060;3.720;2023-04-01T08:03:40;1.10;;;0.88;;
39492;SDS011;25176;51.060;3.720;2023-04-01T08:15:11;1.25;;;0.75;;
39492;SDS011;25176;51.060;3.720;2023-04-01T08:18:04;1.88;;;0.90;;
39492;SDS011;25176;51.060;3.720;2023-04-01T08:20:37;3.75;;;0.82;;
39492;SDS011;25176;51.060;3.720;2023-04-01T08:23:18;2.90;;;1.23;;
39492;SDS011;25176;51.060;3.720;2023-04-01T08:25:52;2.72;;;0.88;;
39492;SDS011;25176;51.060;3.720;2023-04-01T08:28:50;2.70;;;1.23;;
39492;SDS011;25176;51.060;3.720;2023-04-01T08:33:53;4.30;;;1.27;;
39492;SDS011;25176;51.060;3.720;2023-04-01T08:36:32;4.30;;;1.77;;
39492;SDS011;25176;51.060;3.720;2023-04-01T08:39:04;4.03;;;1.40;;
39492;SDS011;25176;51.060;3.720;2023-04-01T08:41:50;3.65;;;1.60;;
39492;SDS011;25176;51.060;3.720;2023-04-01T08:56:02;3.53;;;1.67;;
39492;SDS011;25176;51.060;3.720;2023-04-01T08:58:47;4.80;;;1.40;;
39492;SDS011;25176;51.060;3.720;2023-04-01T09:01:26;4.32;;;1.40;;
39492;SDS011;25176;51.060;3.720;2023-04-01T09:10:03;2.53;;;1.02;;
39492;SDS011;25176;51.060;3.720;2023-04-01T09:21:57;2.35;;;0.95;;
39492;SDS011;25176;51.060;3.720;2023-04-01T09:24:24;2.42;;;1.00;;
39492;SDS011;25176;51.060;3.720;2023-04-01T09:33:00;2.35;;;0.85;;
39492;SDS011;25176;51.060;3.720;2023-04-01T09:35:55;1.75;;;0.85;;
39492;SDS011;25176;51.060;3.720;2023-04-01T09:41:31;1.40;;;0.60;;
39492;SDS011;25176;51.060;3.720;2023-04-01T09:47:05;4.18;;;1.00;;
39492;SDS011;25176;51.060;3.720;2023-04-01T09:52:38;4.00;;;0.85;;
39492;SDS011;25176;51.060;3.720;2023-04-01T09:58:02;1.85;;;0.75;;
39492;SDS011;25176;51.060;3.720;2023-04-01T10:00:49;4.57;;;1.08;;
39492;SDS011;25176;51.060;3.720;2023-04-01T10:09:31;1.77;;;0.75;;
39492;SDS011;25176;51.060;3.720;2023-04-01T10:31:27;3.88;;;0.85;;
39492;SDS011;25176;51.060;3.720;2023-04-01T10:34:11;3.10;;;0.90;;
39492;SDS011;25176;51.060;3.720;2023-04-01T10:36:50;2.10;;;0.85;;
39492;SDS011;25176;51.060;3.720;2023-04-01T10:53:46;2.08;;;0.80;;
39492;SDS011;25176;51.060;3.720;2023-04-01T11:11:27;0.77;;;0.63;;
39492;SDS011;25176;51.060;3.720;2023-04-01T11:14:25;0.50;;;0.50;;
39492;SDS011;25176;51.060;3.720;2023-04-01T11:31:35;2.15;;;0.65;;
39492;SDS011;25176;51.060;3.720;2023-04-01T11:34:11;2.47;;;0.95;;
39492;SDS011;25176;51.060;3.720;2023-04-01T11:56:18;4.05;;;1.30;;
39492;SDS011;25176;51.060;3.720;2023-04-01T11:59:04;2.33;;;1.00;;
39492;SDS011;25176;51.060;3.720;2023-04-01T12:02:05;2.22;;;1.17;;
39492;SDS011;25176;51.060;3.720;2023-04-01T12:05:15;1.67;;;1.10;;
39492;SDS011;25176;51.060;3.720;2023-04-01T12:10:32;4.85;;;1.30;;
39492;SDS011;25176;51.060;3.720;2023-04-01T12:13:16;3.03;;;1.20;;
39492;SDS011;25176;51.060;3.720;2023-04-01T12:15:53;4.68;;;1.92;;
39492;SDS011;25176;51.060;3.720;2023-04-01T12:18:28;2.80;;;1.13;;
39492;SDS011;25176;51.060;3.720;2023-04-01T12:21:23;2.17;;;1.00;;
39492;SDS011;25176;51.060;3.720;2023-04-01T12:24:03;7.00;;;1.75;;
39492;SDS011;25176;51.060;3.720;2023-04-01T12:26:55;4.35;;;1.40;;
39492;SDS011;25176;51.060;3.720;2023-04-01T12:30:15;3.80;;;1.52;;
39492;SDS011;25176;51.060;3.720;2023-04-01T12:32:45;2.70;;;1.42;;
39492;SDS011;25176;51.060;3.720;2023-04-01T12:35:48;2.03;;;0.80;;
39492;SDS011;25176;51.060;3.720;2023-04-01T12:38:29;3.65;;;0.70;;
39492;SDS011;25176;51.060;3.720;2023-04-01T12:41:21;1.95;;;0.90;;
39492;SDS011;25176;51.060;3.720;2023-04-01T12:44:16;3.03;;;1.10;;
39492;SDS011;25176;51.060;3.720;2023-04-01T12:53:08;2.20;;;0.75;;
39492;SDS011;25176;51.060;3.720;2023-04-01T12:55:48;1.15;;;0.60;;
39492;SDS011;25176;51.060;3.720;2023-04-01T13:01:40;1.92;;;0.82;;
39492;SDS011;25176;51.060;3.720;2023-04-01T13:06:26;0.80;;;0.70;;
39492;SDS011;25176;51.060;3.720;2023-04-01T13:09:02;0.82;;;0.73;;
39492;SDS011;25176;51.060;3.720;2023-04-01T13:19:57;2.35;;;1.27;;
39492;SDS011;25176;51.060;3.720;2023-04-01T13:28:20;0.98;;;0.60;;
39492;SDS011;25176;51.060;3.720;2023-04-01T13:34:04;1.92;;;1.15;;
39492;SDS011;25176;51.060;3.720;2023-04-01T13:45:34;1.65;;;0.85;;
39492;SDS011;25176;51.060;3.720;2023-04-01T13:53:57;1.85;;;0.90;;
39492;SDS011;25176;51.060;3.720;2023-04-01T14:02:27;1.98;;;0.60;;
39492;SDS011;25176;51.060;3.720;2023-04-01T14:08:07;1.23;;;0.52;;
39492;SDS011;25176;51.060;3.720;2023-04-01T14:11:13;0.70;;;0.60;;
39492;SDS011;25176;51.060;3.720;2023-04-01T14:13:57;4.93;;;0.70;;
39492;SDS011;25176;51.060;3.720;2023-04-01T14:19:42;2.05;;;0.50;;
39492;SDS011;25176;51.060;3.720;2023-04-01T14:25:23;2.10;;;0.70;;
39492;SDS011;25176;51.060;3.720;2023-04-01T14:30:59;2.38;;;1.52;;
39492;SDS011;25176;51.060;3.720;2023-04-01T14:45:51;2.03;;;0.90;;
39492;SDS011;25176;51.060;3.720;2023-04-01T14:48:25;4.57;;;1.05;;
39492;SDS011;25176;51.060;3.720;2023-04-01T14:50:55;1.45;;;0.65;;
39492;SDS011;25176;51.060;3.720;2023-04-01T14:53:29;1.48;;;0.80;;
39492;SDS011;25176;51.060;3.720;2023-04-01T14:56:01;1.13;;;0.70;;
39492;SDS011;25176;51.060;3.720;2023-04-01T14:58:44;2.40;;;0.68;;
39492;SDS011;25176;51.060;3.720;2023-04-01T15:07:39;1.55;;;0.70;;
39492;SDS011;25176;51.060;3.720;2023-04-01T15:18:29;2.80;;;0.95;;
39492;SDS011;25176;51.060;3.720;2023-04-01T15:24:00;1.40;;;0.70;;
39492;SDS011;25176;51.060;3.720;2023-04-01T15:29:47;1.70;;;0.80;;
39492;SDS011;25176;51.060;3.720;2023-04-01T15:40:42;0.93;;;0.60;;
39492;SDS011;25176;51.060;3.720;2023-04-01T15:43:26;1.70;;;0.70;;
39492;SDS011;25176;51.060;3.720;2023-04-01T15:49:20;3.15;;;1.38;;
39492;SDS011;25176;51.060;3.720;2023-04-01T16:05:53;2.90;;;1.40;;
39492;SDS011;25176;51.060;3.720;2023-04-01T16:11:28;4.25;;;1.65;;
39492;SDS011;25176;51.060;3.720;2023-04-01T16:26:09;1.85;;;0.98;;
39492;SDS011;25176;51.060;3.720;2023-04-01T16:37:03;3.05;;;1.00;;
39492;SDS011;25176;51.060;3.720;2023-04-01T16:42:43;1.88;;;1.00;;
39492;SDS011;25176;51.060;3.720;2023-04-01T16:45:19;3.45;;;1.50;;
39492;SDS011;25176;51.060;3.720;2023-04-01T16:51:20;2.00;;;1.00;;
39492;SDS011;25176;51.060;3.720;2023-04-01T16:56:24;2.67;;;1.42;;
39492;SDS011;25176;51.060;3.720;2023-04-01T17:01:43;4.97;;;1.80;;
39492;SDS011;25176;51.060;3.720;2023-04-01T17:07:06;3.80;;;2.00;;
39492;SDS011;25176;51.060;3.720;2023-04-01T17:10:00;2.83;;;1.95;;
39492;SDS011;25176;51.060;3.720;2023-04-01T17:12:44;4.40;;;1.45;;
39492;SDS011;25176;51.060;3.720;2023-04-01T17:15:27;2.28;;;1.30;;
39492;SDS011;25176;51.060;3.720;2023-04-01T17:23:36;1.35;;;0.98;;
39492;SDS011;25176;51.060;3.720;2023-04-01T17:34:55;2.55;;;1.60;;
39492;SDS011;25176;51.060;3.720;2023-04-01T17:37:37;2.58;;;1.55;;
39492;SDS011;25176;51.060;3.720;2023-04-01T17:40:15;2.55;;;1.70;;
39492;SDS011;25176;51.060;3.720;2023-04-01T17:43:00;5.68;;;1.90;;
39492;SDS011;25176;51.060;3.720;2023-04-01T17:48:24;3.28;;;2.10;;
39492;SDS011;25176;51.060;3.720;2023-04-01T17:51:14;3.65;;;2.10;;
39492;SDS011;25176;51.060;3.720;2023-04-01T17:53:50;5.63;;;2.35;;
39492;SDS011;25176;51.060;3.720;2023-04-01T18:04:55;10.05;;;3.53;;
39492;SDS011;25176;51.060;3.720;2023-04-01T18:10:25;12.65;;;4.97;;
39492;SDS011;25176;51.060;3.720;2023-04-01T18:18:54;7.53;;;4.25;;
39492;SDS011;25176;51.060;3.720;2023-04-01T18:24:18;7.60;;;4.47;;
39492;SDS011;25176;51.060;3.720;2023-04-01T18:38:11;11.15;;;4.63;;
39492;SDS011;25176;51.060;3.720;2023-04-01T18:43:38;12.07;;;5.72;;
39492;SDS011;25176;51.060;3.720;2023-04-01T18:46:07;14.50;;;6.05;;
39492;SDS011;25176;51.060;3.720;2023-04-01T18:56:26;15.52;;;6.88;;
39492;SDS011;25176;51.060;3.720;2023-04-01T19:01:40;16.20;;;7.15;;
39492;SDS011;25176;51.060;3.720;2023-04-01T19:04:37;10.27;;;6.10;;
39492;SDS011;25176;51.060;3.720;2023-04-01T19:07:26;11.82;;;6.25;;
39492;SDS011;25176;51.060;3.720;2023-04-01T19:10:14;15.00;;;6.80;;
39492;SDS011;25176;51.060;3.720;2023-04-01T19:15:40;21.02;;;6.55;;
39492;SDS011;25176;51.060;3.720;2023-04-01T19:18:21;17.77;;;6.17;;
39492;SDS011;25176;51.060;3.720;2023-04-01T19:24:15;15.73;;;5.63;;
39492;SDS011;25176;51.060;3.720;2023-04-01T19:27:18;17.42;;;5.40;;
39492;SDS011;25176;51.060;3.720;2023-04-01T19:32:58;10.38;;;4.50;;
39492;SDS011;25176;51.060;3.720;2023-04-01T19:36:10;17.52;;;4.60;;
39492;SDS011;25176;51.060;3.720;2023-04-01T19:46:55;15.98;;;5.20;;
39492;SDS011;25176;51.060;3.720;2023-04-01T19:52:09;14.18;;;5.22;;
39492;SDS011;25176;51.060;3.720;2023-04-01T20:02:58;11.48;;;4.50;;
39492;SDS011;25176;51.060;3.720;2023-04-01T20:08:32;16.38;;;4.93;;
39492;SDS011;25176;51.060;3.720;2023-04-01T20:11:12;14.27;;;5.38;;
39492;SDS011;25176;51.060;3.720;2023-04-01T20:16:12;15.93;;;5.40;;
39492;SDS011;25176;51.060;3.720;2023-04-01T20:23:58;15.68;;;6.40;;
39492;SDS011;25176;51.060;3.720;2023-04-01T20:26:32;15.85;;;5.95;;
39492;SDS011;25176;51.060;3.720;2023-04-01T20:29:11;14.25;;;5.95;;
39492;SDS011;25176;51.060;3.720;2023-04-01T20:31:50;15.98;;;6.35;;
39492;SDS011;25176;51.060;3.720;2023-04-01T20:34:46;13.98;;;6.13;;
39492;SDS011;25176;51.060;3.720;2023-04-01T20:37:42;19.45;;;7.15;;
39492;SDS011;25176;51.060;3.720;2023-04-01T20:40:30;19.15;;;7.07;;
39492;SDS011;25176;51.060;3.720;2023-04-01T20:43:07;13.43;;;7.10;;
39492;SDS011;25176;51.060;3.720;2023-04-01T20:48:58;18.25;;;7.50;;
39492;SDS011;25176;51.060;3.720;2023-04-01T20:51:54;21.13;;;8.32;;
39492;SDS011;25176;51.060;3.720;2023-04-01T20:57:25;20.25;;;8.07;;
39492;SDS011;25176;51.060;3.720;2023-04-01T21:10:58;23.40;;;9.23;;
39492;SDS011;25176;51.060;3.720;2023-04-01T21:24:36;24.15;;;9.77;;
39492;SDS011;25176;51.060;3.720;2023-04-01T21:44:58;24.95;;;9.48;;
39492;SDS011;25176;51.060;3.720;2023-04-01T21:56:49;25.17;;;9.70;;
39492;SDS011;25176;51.060;3.720;2023-04-01T21:59:51;25.67;;;11.88;;
39492;SDS011;25176;51.060;3.720;2023-04-01T22:29:59;31.88;;;11.13;;
39492;SDS011;25176;51.060;3.720;2023-04-01T22:32:42;30.65;;;11.95;;
39492;SDS011;25176;51.060;3.720;2023-04-01T22:37:55;25.20;;;10.30;;
39492;SDS011;25176;51.060;3.720;2023-04-01T22:40:42;17.83;;;10.35;;
39492;SDS011;25176;51.060;3.720;2023-04-01T22:43:16;17.95;;;9.93;;
39492;SDS011;25176;51.060;3.720;2023-04-01T22:48:38;24.70;;;10.38;;
39492;SDS011;25176;51.060;3.720;2023-04-01T22:56:34;24.83;;;11.52;;
39492;SDS011;25176;51.060;3.720;2023-04-01T22:59:06;26.63;;;11.43;;
39492;SDS011;25176;51.060;3.720;2023-04-01T23:01:33;20.42;;;11.35;;
39492;SDS011;25176;51.060;3.720;2023-04-01T23:04:04;22.55;;;12.13;;
39492;SDS011;25176;51.060;3.720;2023-04-01T23:06:33;21.95;;;12.30;;
39492;SDS011;25176;51.060;3.720;2023-04-01T23:11:53;19.92;;;11.43;;
39492;SDS011;25176;51.060;3.720;2023-04-01T23:17:07;22.00;;;12.85;;
39492;SDS011;25176;51.060;3.720;2023-04-01T23:25:05;21.87;;;12.23;;
39492;SDS011;25176;51.060;3.720;2023-04-01T23:33:19;27.05;;;15.23;;
39492;SDS011;25176;51.060;3.720;2023-04-01T23:36:29;33.60;;;17.73;;
39492;SDS011;25176;51.060;3.720;2023-04-01T23:38:48;25.38;;;16.50;;
39492;SDS011;25176;51.060;3.720;2023-04-01T23:41:25;31.40;;;16.63;;
39492;SDS011;25176;51.060;3.720;2023-04-01T23:43:58;27.30;;;17.50;;
39492;SDS011;25176;51.060;3.720;2023-04-01T23:46:37;26.88;;;18.00;;
39492;SDS011;25176;51.060;3.720;2023-04-01T23:49:05;24.67;;;17.05;;
39492;SDS011;25176;51.060;3.720;2023-04-01T23:51:54;24.83;;;18.33;;
39492;SDS011;25176;51.060;3.720;2023-04-01T23:56:59;22.48;;;17.95;;
39492;SDS011;25176;51.060;3.720;2023-04-01T23:59:35;23.63;;;17.75;;
